sensor_id;sensor_type;location;lat;lon;timestamp;pressure;altitude;pressure_sealevel;temperature;humidity
59987;BME280;46181;51.498;5.392;2023-02-20T00:02:26;102520.4;;;10.41;62.2207
59987;BME280;46181;51.498;5.392;2023-02-20T00:06:56;102521.8;;;10.45;62.20313
59987;BME280;46181;51.498;5.392;2023-02-20T00:11:26;102520.6;;;10.51;62.11133
59987;BME280;46181;51.498;5.392;2023-02-20T00:15:56;102523.2;;;10.47;61.94824
59987;BME280;46181;51.498;5.392;2023-02-20T00:20:27;102516.4;;;10.39;61.95996
59987;BME280;46181;51.498;5.392;2023-02-20T00:24:56;102502.5;;;10.31;62.04883
59987;BME280;46181;51.498;5.392;2023-02-20T00:29:29;102506.4;;;10.21;62.125
59987;BME280;46181;51.498;5.392;2023-02-20T00:33:56;102485.3;;;10.19;62.17871
59987;BME280;46181;51.498;5.392;2023-02-20T00:38:26;102486.5;;;10.16;62.22949
59987;BME280;46181;51.498;5.392;2023-02-20T00:42:56;102464.5;;;10.14;62.24902
59987;BME280;46181;51.498;5.392;2023-02-20T00:47:26;102462.4;;;10.1;62.35547
59987;BME280;46181;51.498;5.392;2023-02-20T00:51:56;102458.4;;;10.08;62.41016
59987;BME280;46181;51.498;5.392;2023-02-20T00:56:26;102447;;;10.08;62.37695
59987;BME280;46181;51.498;5.392;2023-02-20T01:00:56;102439.2;;;10.03;62.44629
59987;BME280;46181;51.498;5.392;2023-02-20T01:05:26;102427.8;;;9.99;62.47559
59987;BME280;46181;51.498;5.392;2023-02-20T01:09:56;102432.3;;;9.97;62.5166
59987;BME280;46181;51.498;5.392;2023-02-20T01:14:26;102429.8;;;9.9;62.59668
59987;BME280;46181;51.498;5.392;2023-02-20T01:18:56;102435.2;;;9.85;62.65723
59987;BME280;46181;51.498;5.392;2023-02-20T01:23:26;102451.1;;;9.83;62.7334
59987;BME280;46181;51.498;5.392;2023-02-20T01:27:56;102450.4;;;9.8;62.77441
59987;BME280;46181;51.498;5.392;2023-02-20T01:32:26;102445.3;;;9.75;62.79883
59987;BME280;46181;51.498;5.392;2023-02-20T01:37:00;102439.5;;;9.7;62.93848
59987;BME280;46181;51.498;5.392;2023-02-20T01:41:26;102436.3;;;9.72;62.92969
59987;BME280;46181;51.498;5.392;2023-02-20T01:50:28;102427.8;;;9.65;63.05469
59987;BME280;46181;51.498;5.392;2023-02-20T01:54:59;102420.8;;;9.63;63.0625
59987;BME280;46181;51.498;5.392;2023-02-20T01:59:28;102405.9;;;9.56;63.1543
59987;BME280;46181;51.498;5.392;2023-02-20T02:03:58;102393.6;;;9.54;63.24121
59987;BME280;46181;51.498;5.392;2023-02-20T02:08:27;102378.3;;;9.5;63.3584
59987;BME280;46181;51.498;5.392;2023-02-20T02:12:59;102368.6;;;9.49;63.51367
59987;BME280;46181;51.498;5.392;2023-02-20T02:17:45;102346.5;;;9.41;63.72559
59987;BME280;46181;51.498;5.392;2023-02-20T02:22:14;102333.9;;;9.39;63.86914
59987;BME280;46181;51.498;5.392;2023-02-20T02:40:00;102336.6;;;9.39;64.22754
59987;BME280;46181;51.498;5.392;2023-02-20T02:44:33;102314.8;;;9.41;64.34375
59987;BME280;46181;51.498;5.392;2023-02-20T02:49:02;102328.6;;;9.45;64.5498
59987;BME280;46181;51.498;5.392;2023-02-20T02:53:26;102322.7;;;9.55;64.66504
59987;BME280;46181;51.498;5.392;2023-02-20T02:57:56;102313.1;;;9.63;64.6543
59987;BME280;46181;51.498;5.392;2023-02-20T03:02:27;102312.6;;;9.7;64.58691
59987;BME280;46181;51.498;5.392;2023-02-20T03:06:59;102305.4;;;9.76;64.78516
59987;BME280;46181;51.498;5.392;2023-02-20T03:11:28;102292.1;;;9.89;64.79395
59987;BME280;46181;51.498;5.392;2023-02-20T03:16:01;102296.6;;;10.02;64.85938
59987;BME280;46181;51.498;5.392;2023-02-20T03:20:28;102282;;;10.12;64.76074
59987;BME280;46181;51.498;5.392;2023-02-20T03:24:58;102285.2;;;10.24;64.73438
59987;BME280;46181;51.498;5.392;2023-02-20T03:29:30;102287.6;;;10.31;64.6543
59987;BME280;46181;51.498;5.392;2023-02-20T03:33:59;102290.1;;;10.32;64.48828
59987;BME280;46181;51.498;5.392;2023-02-20T03:38:27;102293.8;;;10.37;64.54102
59987;BME280;46181;51.498;5.392;2023-02-20T03:42:59;102298;;;10.41;64.625
59987;BME280;46181;51.498;5.392;2023-02-20T03:47:28;102290.1;;;10.49;64.54688
59987;BME280;46181;51.498;5.392;2023-02-20T03:51:56;102289.9;;;10.58;64.58301
59987;BME280;46181;51.498;5.392;2023-02-20T03:56:29;102281.5;;;10.62;64.33008
59987;BME280;46181;51.498;5.392;2023-02-20T04:00:59;102276.5;;;10.5;64.3125
59987;BME280;46181;51.498;5.392;2023-02-20T04:05:29;102274.5;;;10.45;64.44043
59987;BME280;46181;51.498;5.392;2023-02-20T04:09:57;102275.8;;;10.47;64.63379
59987;BME280;46181;51.498;5.392;2023-02-20T04:14:28;102278;;;10.52;64.61816
59987;BME280;46181;51.498;5.392;2023-02-20T04:18:57;102288.3;;;10.55;64.71387
59987;BME280;46181;51.498;5.392;2023-02-20T04:23:27;102294.7;;;10.67;64.68652
59987;BME280;46181;51.498;5.392;2023-02-20T04:27:56;102296.9;;;10.78;64.58984
59987;BME280;46181;51.498;5.392;2023-02-20T04:32:27;102290;;;10.88;64.36914
59987;BME280;46181;51.498;5.392;2023-02-20T04:36:59;102295.8;;;10.95;64.28906
59987;BME280;46181;51.498;5.392;2023-02-20T04:41:26;102300.1;;;11.02;64.17578
59987;BME280;46181;51.498;5.392;2023-02-20T04:45:56;102298.4;;;11.07;64.10352
59987;BME280;46181;51.498;5.392;2023-02-20T04:50:30;102300.3;;;11.11;64.05371
59987;BME280;46181;51.498;5.392;2023-02-20T04:54:56;102296.9;;;11.21;63.93359
59987;BME280;46181;51.498;5.392;2023-02-20T04:59:27;102301.1;;;11.24;63.85938
59987;BME280;46181;51.498;5.392;2023-02-20T05:03:56;102298.9;;;11.31;63.80176
59987;BME280;46181;51.498;5.392;2023-02-20T05:08:26;102297.1;;;11.33;63.72656
59987;BME280;46181;51.498;5.392;2023-02-20T05:12:56;102299.6;;;11.4;63.64551
59987;BME280;46181;51.498;5.392;2023-02-20T05:17:26;102304.3;;;11.44;63.52734
59987;BME280;46181;51.498;5.392;2023-02-20T05:21:56;102306.2;;;11.48;63.44336
59987;BME280;46181;51.498;5.392;2023-02-20T05:26:29;102305.3;;;11.49;63.42188
59987;BME280;46181;51.498;5.392;2023-02-20T05:30:56;102305.4;;;11.55;63.2959
59987;BME280;46181;51.498;5.392;2023-02-20T05:35:26;102303.4;;;11.57;63.16504
59987;BME280;46181;51.498;5.392;2023-02-20T05:39:57;102306;;;11.58;63.15332
59987;BME280;46181;51.498;5.392;2023-02-20T05:44:26;102307.8;;;11.63;63.14941
59987;BME280;46181;51.498;5.392;2023-02-20T05:49:00;102306.3;;;11.63;63.09277
59987;BME280;46181;51.498;5.392;2023-02-20T05:53:27;102299.2;;;11.66;63.04102
59987;BME280;46181;51.498;5.392;2023-02-20T05:57:56;102300.2;;;11.7;62.84375
59987;BME280;46181;51.498;5.392;2023-02-20T06:02:30;102304.6;;;11.68;62.86328
59987;BME280;46181;51.498;5.392;2023-02-20T06:06:56;102304.2;;;11.7;62.82227
59987;BME280;46181;51.498;5.392;2023-02-20T06:11:26;102315;;;11.74;62.63574
59987;BME280;46181;51.498;5.392;2023-02-20T06:15:56;102304.2;;;11.75;62.54688
59987;BME280;46181;51.498;5.392;2023-02-20T06:20:27;102304.3;;;11.73;62.52246
59987;BME280;46181;51.498;5.392;2023-02-20T06:24:57;102316.4;;;11.78;62.41602
59987;BME280;46181;51.498;5.392;2023-02-20T06:29:26;102314.9;;;11.77;62.3584
59987;BME280;46181;51.498;5.392;2023-02-20T06:33:57;102313.1;;;11.78;62.28027
59987;BME280;46181;51.498;5.392;2023-02-20T06:38:26;102306.5;;;11.8;62.11426
59987;BME280;46181;51.498;5.392;2023-02-20T06:42:56;102306.7;;;11.79;62.00098
59987;BME280;46181;51.498;5.392;2023-02-20T06:47:27;102307.2;;;11.79;61.9209
59987;BME280;46181;51.498;5.392;2023-02-20T06:52:00;102305.4;;;11.8;61.81055
59987;BME280;46181;51.498;5.392;2023-02-20T06:56:28;102308.4;;;11.8;61.69629
59987;BME280;46181;51.498;5.392;2023-02-20T07:00:56;102315.6;;;11.83;61.58887
59987;BME280;46181;51.498;5.392;2023-02-20T07:05:26;102310.1;;;11.86;61.35645
59987;BME280;46181;51.498;5.392;2023-02-20T07:09:56;102318.5;;;11.9;61.38477
59987;BME280;46181;51.498;5.392;2023-02-20T07:14:26;102322;;;11.93;61.25293
59987;BME280;46181;51.498;5.392;2023-02-20T07:18:56;102324.1;;;11.97;61.20215
59987;BME280;46181;51.498;5.392;2023-02-20T07:23:26;102322;;;11.99;61.14844
59987;BME280;46181;51.498;5.392;2023-02-20T07:27:57;102324.1;;;12.05;60.96484
59987;BME280;46181;51.498;5.392;2023-02-20T07:32:26;102313.4;;;12.06;60.83105
59987;BME280;46181;51.498;5.392;2023-02-20T07:36:56;102316.9;;;12.09;60.91504
59987;BME280;46181;51.498;5.392;2023-02-20T07:41:29;102306.7;;;12.13;60.8291
59987;BME280;46181;51.498;5.392;2023-02-20T07:45:56;102307.7;;;12.18;60.86914
59987;BME280;46181;51.498;5.392;2023-02-20T07:50:26;102302.4;;;12.23;60.71777
59987;BME280;46181;51.498;5.392;2023-02-20T07:54:56;102305;;;12.26;60.65625
59987;BME280;46181;51.498;5.392;2023-02-20T07:59:26;102309.4;;;12.33;60.62012
59987;BME280;46181;51.498;5.392;2023-02-20T08:03:56;102304.5;;;12.39;60.56055
59987;BME280;46181;51.498;5.392;2023-02-20T08:08:26;102305.3;;;12.43;60.29492
59987;BME280;46181;51.498;5.392;2023-02-20T08:12:57;102302;;;12.46;60.42285
59987;BME280;46181;51.498;5.392;2023-02-20T08:17:27;102300.4;;;12.53;60.22949
59987;BME280;46181;51.498;5.392;2023-02-20T08:21:57;102303.9;;;12.6;60.16016
59987;BME280;46181;51.498;5.392;2023-02-20T08:26:26;102312;;;12.67;60.01172
59987;BME280;46181;51.498;5.392;2023-02-20T08:30:56;102302.7;;;12.73;59.82813
59987;BME280;46181;51.498;5.392;2023-02-20T08:35:27;102302;;;12.77;59.86719
59987;BME280;46181;51.498;5.392;2023-02-20T08:39:56;102301.3;;;12.86;59.83398
59987;BME280;46181;51.498;5.392;2023-02-20T08:44:26;102301.8;;;12.92;59.73926
59987;BME280;46181;51.498;5.392;2023-02-20T08:48:56;102299.5;;;13.03;59.68652
59987;BME280;46181;51.498;5.392;2023-02-20T08:53:26;102303.9;;;13.09;59.46973
59987;BME280;46181;51.498;5.392;2023-02-20T08:57:56;102300.1;;;13.13;59.3291
59987;BME280;46181;51.498;5.392;2023-02-20T09:02:28;102302.8;;;13.15;59.4209
59987;BME280;46181;51.498;5.392;2023-02-20T09:06:57;102306.9;;;13.22;59.39648
59987;BME280;46181;51.498;5.392;2023-02-20T09:11:26;102310.3;;;13.26;59.1875
59987;BME280;46181;51.498;5.392;2023-02-20T09:15:56;102316;;;13.3;59.20313
59987;BME280;46181;51.498;5.392;2023-02-20T09:20:28;102307;;;13.31;59.25
59987;BME280;46181;51.498;5.392;2023-02-20T09:24:59;102308.2;;;13.36;59.18945
59987;BME280;46181;51.498;5.392;2023-02-20T09:29:27;102305.3;;;13.45;59.13379
59987;BME280;46181;51.498;5.392;2023-02-20T09:33:56;102310;;;13.5;59.04883
59987;BME280;46181;51.498;5.392;2023-02-20T09:38:26;102301;;;13.49;58.94531
59987;BME280;46181;51.498;5.392;2023-02-20T09:43:06;102293.5;;;13.43;58.7793
59987;BME280;46181;51.498;5.392;2023-02-20T09:47:55;102295.7;;;13.43;58.88184
59987;BME280;46181;51.498;5.392;2023-02-20T09:52:00;102298.8;;;13.53;58.88281
59987;BME280;46181;51.498;5.392;2023-02-20T09:56:29;102293;;;13.58;58.81055
59987;BME280;46181;51.498;5.392;2023-02-20T10:00:59;102277.9;;;13.64;58.56836
59987;BME280;46181;51.498;5.392;2023-02-20T10:05:29;102268.2;;;13.67;58.61914
59987;BME280;46181;51.498;5.392;2023-02-20T10:09:57;102272.4;;;13.76;58.3125
59987;BME280;46181;51.498;5.392;2023-02-20T10:14:47;102277.4;;;13.74;58.49121
59987;BME280;46181;51.498;5.392;2023-02-20T10:19:01;102287.7;;;13.84;58.53906
59987;BME280;46181;51.498;5.392;2023-02-20T10:23:36;102297;;;13.9;58.50098
59987;BME280;46181;51.498;5.392;2023-02-20T10:28:02;102289.5;;;13.96;58.28418
59987;BME280;46181;51.498;5.392;2023-02-20T10:32:31;102293;;;13.98;58.19434
59987;BME280;46181;51.498;5.392;2023-02-20T10:36:59;102302.1;;;14.05;58.33984
59987;BME280;46181;51.498;5.392;2023-02-20T10:41:29;102306.7;;;14.13;58.32813
59987;BME280;46181;51.498;5.392;2023-02-20T10:46:02;102310.5;;;14.12;58.14551
59987;BME280;46181;51.498;5.392;2023-02-20T10:50:30;102311.6;;;14.14;58.06836
59987;BME280;46181;51.498;5.392;2023-02-20T10:55:02;102294.6;;;14.1;58.08496
59987;BME280;46181;51.498;5.392;2023-02-20T10:59:32;102284.3;;;14.03;57.90625
59987;BME280;46181;51.498;5.392;2023-02-20T11:04:01;102296.7;;;13.97;58.18262
59987;BME280;46181;51.498;5.392;2023-02-20T11:08:27;102300.2;;;14.04;58.21387
59987;BME280;46181;51.498;5.392;2023-02-20T11:12:59;102306.5;;;13.99;58.10449
59987;BME280;46181;51.498;5.392;2023-02-20T11:17:28;102305;;;13.96;58.22559
59987;BME280;46181;51.498;5.392;2023-02-20T11:21:58;102285.5;;;13.9;58.33105
59987;BME280;46181;51.498;5.392;2023-02-20T11:26:32;102291.9;;;13.88;58.44141
59987;BME280;46181;51.498;5.392;2023-02-20T11:31:00;102284.8;;;13.92;58.57129
59987;BME280;46181;51.498;5.392;2023-02-20T11:35:34;102293.6;;;13.92;58.58301
59987;BME280;46181;51.498;5.392;2023-02-20T11:39:58;102295.3;;;13.99;58.58105
59987;BME280;46181;51.498;5.392;2023-02-20T11:44:31;102273.1;;;13.93;58.61914
59987;BME280;46181;51.498;5.392;2023-02-20T11:49:09;102270.8;;;13.89;58.81738
59987;BME280;46181;51.498;5.392;2023-02-20T11:53:31;102265.2;;;13.98;58.70508
59987;BME280;46181;51.498;5.392;2023-02-20T11:57:57;102261.8;;;14.03;58.80273
59987;BME280;46181;51.498;5.392;2023-02-20T12:02:34;102240.8;;;14.02;58.87988
59987;BME280;46181;51.498;5.392;2023-02-20T12:06:57;102231.9;;;14.09;58.75293
59987;BME280;46181;51.498;5.392;2023-02-20T12:11:27;102245.2;;;14.11;58.70996
59987;BME280;46181;51.498;5.392;2023-02-20T12:16:04;102237.2;;;14.08;58.79688
59987;BME280;46181;51.498;5.392;2023-02-20T12:20:28;102205.7;;;14.16;58.78516
59987;BME280;46181;51.498;5.392;2023-02-20T12:25:06;102221.6;;;14.2;58.68945
59987;BME280;46181;51.498;5.392;2023-02-20T12:29:41;102222.2;;;14.19;58.87012
59987;BME280;46181;51.498;5.392;2023-02-20T12:34:10;102218.5;;;14.3;58.79297
59987;BME280;46181;51.498;5.392;2023-02-20T12:38:40;102195.8;;;14.37;58.71191
59987;BME280;46181;51.498;5.392;2023-02-20T12:43:02;102198.1;;;14.53;58.35742
59987;BME280;46181;51.498;5.392;2023-02-20T12:47:31;102198;;;14.6;58.24219
59987;BME280;46181;51.498;5.392;2023-02-20T12:52:03;102178.4;;;14.63;57.96191
59987;BME280;46181;51.498;5.392;2023-02-20T12:56:47;102185.5;;;14.66;58.12598
59987;BME280;46181;51.498;5.392;2023-02-20T13:01:01;102165.9;;;14.74;57.91895
59987;BME280;46181;51.498;5.392;2023-02-20T13:05:28;102160.5;;;14.79;57.59766
59987;BME280;46181;51.498;5.392;2023-02-20T13:10:03;102141.5;;;14.84;57.38672
59987;BME280;46181;51.498;5.392;2023-02-20T13:14:37;102128.6;;;14.84;57.4209
59987;BME280;46181;51.498;5.392;2023-02-20T13:19:01;102147.2;;;14.87;57.4707
59987;BME280;46181;51.498;5.392;2023-02-20T13:23:44;102160.9;;;14.85;57.64941
59987;BME280;46181;51.498;5.392;2023-02-20T13:28:20;102145.6;;;14.84;57.36426
59987;BME280;46181;51.498;5.392;2023-02-20T13:32:34;102174.7;;;14.85;57.43457
59987;BME280;46181;51.498;5.392;2023-02-20T13:36:57;102156.9;;;14.86;57.13965
59987;BME280;46181;51.498;5.392;2023-02-20T13:41:27;102150.3;;;14.75;57.17188
59987;BME280;46181;51.498;5.392;2023-02-20T13:50:40;102134;;;14.63;57.48438
59987;BME280;46181;51.498;5.392;2023-02-20T13:54:57;102138.4;;;14.74;57.27148
59987;BME280;46181;51.498;5.392;2023-02-20T13:59:28;102132.9;;;14.72;57.20215
59987;BME280;46181;51.498;5.392;2023-02-20T14:04:07;102131.4;;;14.61;57.27734
59987;BME280;46181;51.498;5.392;2023-02-20T14:08:30;102123.7;;;14.59;57.25098
59987;BME280;46181;51.498;5.392;2023-02-20T14:13:03;102121.1;;;14.5;57.28613
59987;BME280;46181;51.498;5.392;2023-02-20T14:17:28;102117.1;;;14.51;57.34473
59987;BME280;46181;51.498;5.392;2023-02-20T14:21:57;102111.3;;;14.54;57.5752
59987;BME280;46181;51.498;5.392;2023-02-20T14:26:32;102112;;;14.53;57.51855
59987;BME280;46181;51.498;5.392;2023-02-20T14:31:21;102104.5;;;14.48;57.5
59987;BME280;46181;51.498;5.392;2023-02-20T14:35:41;102102.2;;;14.48;57.59082
59987;BME280;46181;51.498;5.392;2023-02-20T14:40:04;102101.2;;;14.5;57.66113
59987;BME280;46181;51.498;5.392;2023-02-20T14:44:27;102103.8;;;14.57;57.55664
59987;BME280;46181;51.498;5.392;2023-02-20T14:49:07;102097.1;;;14.6;57.48242
59987;BME280;46181;51.498;5.392;2023-02-20T14:53:27;102099.4;;;14.6;57.58496
59987;BME280;46181;51.498;5.392;2023-02-20T14:57:57;102097.5;;;14.62;57.37012
59987;BME280;46181;51.498;5.392;2023-02-20T15:02:29;102088.3;;;14.59;57.44531
59987;BME280;46181;51.498;5.392;2023-02-20T15:06:59;102077.2;;;14.66;57.5918
59987;BME280;46181;51.498;5.392;2023-02-20T15:11:27;102074.1;;;14.69;57.48145
59987;BME280;46181;51.498;5.392;2023-02-20T15:16:06;102090.5;;;14.72;57.43945
59987;BME280;46181;51.498;5.392;2023-02-20T15:20:45;102085.3;;;14.62;57.80273
59987;BME280;46181;51.498;5.392;2023-02-20T15:25:10;102080.4;;;14.73;57.35059
59987;BME280;46181;51.498;5.392;2023-02-20T15:29:32;102082.8;;;14.64;57.38477
59987;BME280;46181;51.498;5.392;2023-02-20T15:33:59;102085.1;;;14.65;57.59082
59987;BME280;46181;51.498;5.392;2023-02-20T15:38:28;102088.3;;;14.68;57.44629
59987;BME280;46181;51.498;5.392;2023-02-20T15:42:57;102086.4;;;14.64;57.50977
59987;BME280;46181;51.498;5.392;2023-02-20T15:47:27;102081.4;;;14.63;57.54102
59987;BME280;46181;51.498;5.392;2023-02-20T15:51:57;102067.9;;;14.63;57.63281
59987;BME280;46181;51.498;5.392;2023-02-20T15:56:28;102069.9;;;14.63;57.64355
59987;BME280;46181;51.498;5.392;2023-02-20T16:00:57;102069.7;;;14.63;57.70215
59987;BME280;46181;51.498;5.392;2023-02-20T16:05:27;102065.8;;;14.64;57.71387
59987;BME280;46181;51.498;5.392;2023-02-20T16:09:57;102054.8;;;14.68;57.80957
59987;BME280;46181;51.498;5.392;2023-02-20T16:14:27;102057.6;;;14.69;57.65234
59987;BME280;46181;51.498;5.392;2023-02-20T16:18:57;102071.2;;;14.66;57.78516
59987;BME280;46181;51.498;5.392;2023-02-20T16:23:27;102060.4;;;14.65;57.76074
59987;BME280;46181;51.498;5.392;2023-02-20T16:27:59;102041.1;;;14.59;57.75098
59987;BME280;46181;51.498;5.392;2023-02-20T16:32:29;102042.9;;;14.52;57.8125
59987;BME280;46181;51.498;5.392;2023-02-20T16:36:57;102056.3;;;14.52;57.94922
59987;BME280;46181;51.498;5.392;2023-02-20T16:41:27;102054.3;;;14.52;57.89063
59987;BME280;46181;51.498;5.392;2023-02-20T16:45:57;102068.8;;;14.48;58.02246
59987;BME280;46181;51.498;5.392;2023-02-20T16:50:28;102063.6;;;14.46;58.16797
59987;BME280;46181;51.498;5.392;2023-02-20T16:54:57;102055.8;;;14.45;58.10938
59987;BME280;46181;51.498;5.392;2023-02-20T16:59:27;102077.1;;;14.44;58.03906
59987;BME280;46181;51.498;5.392;2023-02-20T17:03:57;102088.1;;;14.41;58.22852
59987;BME280;46181;51.498;5.392;2023-02-20T17:08:27;102091.9;;;14.39;58.2373
59987;BME280;46181;51.498;5.392;2023-02-20T17:12:57;102078.3;;;14.38;58.31641
59987;BME280;46181;51.498;5.392;2023-02-20T17:17:27;102081.9;;;14.38;58.34961
59987;BME280;46181;51.498;5.392;2023-02-20T17:22:00;102095.1;;;14.35;58.39063
59987;BME280;46181;51.498;5.392;2023-02-20T17:26:27;102079.3;;;14.37;58.4043
59987;BME280;46181;51.498;5.392;2023-02-20T17:30:57;102081.5;;;14.36;58.50586
59987;BME280;46181;51.498;5.392;2023-02-20T17:35:27;102093.3;;;14.36;58.54102
59987;BME280;46181;51.498;5.392;2023-02-20T17:39:57;102101.5;;;14.34;58.63965
59987;BME280;46181;51.498;5.392;2023-02-20T17:44:29;102086.7;;;14.33;58.68359
59987;BME280;46181;51.498;5.392;2023-02-20T17:48:57;102087.3;;;14.36;58.68848
59987;BME280;46181;51.498;5.392;2023-02-20T17:53:27;102103.7;;;14.37;58.76758
59987;BME280;46181;51.498;5.392;2023-02-20T17:57:57;102116.8;;;14.41;58.72852
59987;BME280;46181;51.498;5.392;2023-02-20T18:02:27;102099.8;;;14.42;58.71777
59987;BME280;46181;51.498;5.392;2023-02-20T18:06:57;102098.6;;;14.43;58.73047
59987;BME280;46181;51.498;5.392;2023-02-20T18:11:27;102094.7;;;14.41;58.73926
59987;BME280;46181;51.498;5.392;2023-02-20T18:15:57;102098.5;;;14.42;58.74121
59987;BME280;46181;51.498;5.392;2023-02-20T18:20:27;102102;;;14.41;58.77344
59987;BME280;46181;51.498;5.392;2023-02-20T18:24:57;102102.3;;;14.42;58.78711
59987;BME280;46181;51.498;5.392;2023-02-20T18:29:27;102094.8;;;14.42;58.79785
59987;BME280;46181;51.498;5.392;2023-02-20T18:33:57;102088.2;;;14.42;58.82129
59987;BME280;46181;51.498;5.392;2023-02-20T18:38:27;102091.5;;;14.44;58.78906
59987;BME280;46181;51.498;5.392;2023-02-20T18:42:57;102091.9;;;14.42;58.75195
59987;BME280;46181;51.498;5.392;2023-02-20T18:47:27;102093.4;;;14.38;58.80371
59987;BME280;46181;51.498;5.392;2023-02-20T18:51:57;102104.2;;;14.36;58.89258
59987;BME280;46181;51.498;5.392;2023-02-20T18:56:27;102103;;;14.35;59.02637
59987;BME280;46181;51.498;5.392;2023-02-20T19:00:57;102094.8;;;14.37;58.96094
59987;BME280;46181;51.498;5.392;2023-02-20T19:05:27;102099.8;;;14.36;59.03906
59987;BME280;46181;51.498;5.392;2023-02-20T19:09:58;102088.6;;;14.33;59.02246
59987;BME280;46181;51.498;5.392;2023-02-20T19:14:28;102084.2;;;14.31;59.15625
59987;BME280;46181;51.498;5.392;2023-02-20T19:18:57;102085.1;;;14.32;59.11328
59987;BME280;46181;51.498;5.392;2023-02-20T19:23:27;102090;;;14.31;59.21289
59987;BME280;46181;51.498;5.392;2023-02-20T19:27:57;102086;;;14.29;59.15527
59987;BME280;46181;51.498;5.392;2023-02-20T19:32:27;102085.1;;;14.3;59.24707
59987;BME280;46181;51.498;5.392;2023-02-20T19:36:57;102074.2;;;14.31;59.20215
59987;BME280;46181;51.498;5.392;2023-02-20T19:41:27;102069.5;;;14.32;59.19336
59987;BME280;46181;51.498;5.392;2023-02-20T19:45:57;102068.4;;;14.31;59.29297
59987;BME280;46181;51.498;5.392;2023-02-20T19:50:27;102057;;;14.3;59.28125
59987;BME280;46181;51.498;5.392;2023-02-20T19:54:57;102059.9;;;14.27;59.27734
59987;BME280;46181;51.498;5.392;2023-02-20T19:59:27;102062.4;;;14.25;59.31934
59987;BME280;46181;51.498;5.392;2023-02-20T20:03:57;102063.6;;;14.23;59.375
59987;BME280;46181;51.498;5.392;2023-02-20T20:08:27;102065.4;;;14.22;59.45215
59987;BME280;46181;51.498;5.392;2023-02-20T20:12:57;102062.7;;;14.21;59.48633
59987;BME280;46181;51.498;5.392;2023-02-20T20:17:27;102065.5;;;14.23;59.50977
59987;BME280;46181;51.498;5.392;2023-02-20T20:21:57;102067.5;;;14.21;59.48633
59987;BME280;46181;51.498;5.392;2023-02-20T20:26:28;102064.5;;;14.18;59.52539
59987;BME280;46181;51.498;5.392;2023-02-20T20:30:57;102070;;;14.17;59.5127
59987;BME280;46181;51.498;5.392;2023-02-20T20:35:28;102070.5;;;14.16;59.68262
59987;BME280;46181;51.498;5.392;2023-02-20T20:39:57;102071.6;;;14.19;59.69824
59987;BME280;46181;51.498;5.392;2023-02-20T20:44:27;102065.8;;;14.18;59.70801
59987;BME280;46181;51.498;5.392;2023-02-20T20:49:00;102065.5;;;14.19;59.74316
59987;BME280;46181;51.498;5.392;2023-02-20T20:53:27;102063.3;;;14.21;59.65527
59987;BME280;46181;51.498;5.392;2023-02-20T20:57:57;102062.9;;;14.2;59.6416
59987;BME280;46181;51.498;5.392;2023-02-20T21:02:27;102061.1;;;14.19;59.7207
59987;BME280;46181;51.498;5.392;2023-02-20T21:06:57;102055.6;;;14.18;59.65039
59987;BME280;46181;51.498;5.392;2023-02-20T21:11:27;102046;;;14.16;59.7041
59987;BME280;46181;51.498;5.392;2023-02-20T21:15:57;102045.6;;;14.16;59.75098
59987;BME280;46181;51.498;5.392;2023-02-20T21:20:29;102048.6;;;14.14;59.72461
59987;BME280;46181;51.498;5.392;2023-02-20T21:24:57;102045.2;;;14.13;59.75781
59987;BME280;46181;51.498;5.392;2023-02-20T21:29:27;102043;;;14.13;59.80273
59987;BME280;46181;51.498;5.392;2023-02-20T21:33:57;102038.4;;;14.13;60.05273
59987;BME280;46181;51.498;5.392;2023-02-20T21:38:27;102036.4;;;14.15;59.81641
59987;BME280;46181;51.498;5.392;2023-02-20T21:42:57;102030.5;;;14.14;59.78125
59987;BME280;46181;51.498;5.392;2023-02-20T21:47:27;102030;;;14.12;59.84668
59987;BME280;46181;51.498;5.392;2023-02-20T21:51:57;102024;;;14.1;59.87891
59987;BME280;46181;51.498;5.392;2023-02-20T21:56:27;102020.5;;;14.07;59.94141
59987;BME280;46181;51.498;5.392;2023-02-20T22:00:57;102036.6;;;14.08;59.9668
59987;BME280;46181;51.498;5.392;2023-02-20T22:05:27;102036.5;;;14.09;60.00195
59987;BME280;46181;51.498;5.392;2023-02-20T22:09:57;102029.5;;;14.07;59.96484
59987;BME280;46181;51.498;5.392;2023-02-20T22:14:27;102025.6;;;14.05;60.04004
59987;BME280;46181;51.498;5.392;2023-02-20T22:18:57;102016.7;;;14.04;60.07422
59987;BME280;46181;51.498;5.392;2023-02-20T22:23:27;102014.1;;;14.03;60.10547
59987;BME280;46181;51.498;5.392;2023-02-20T22:27:57;102018.6;;;14;60.1377
59987;BME280;46181;51.498;5.392;2023-02-20T22:32:27;102016.2;;;14;60.19434
59987;BME280;46181;51.498;5.392;2023-02-20T22:36:59;102019.2;;;13.98;60.23535
59987;BME280;46181;51.498;5.392;2023-02-20T22:41:30;102012.5;;;13.96;60.22266
59987;BME280;46181;51.498;5.392;2023-02-20T22:45:57;102009.8;;;13.96;60.22168
59987;BME280;46181;51.498;5.392;2023-02-20T22:50:27;102008.4;;;13.93;60.29785
59987;BME280;46181;51.498;5.392;2023-02-20T22:54:57;102010;;;13.92;60.3291
59987;BME280;46181;51.498;5.392;2023-02-20T22:59:27;102014.3;;;13.94;60.35547
59987;BME280;46181;51.498;5.392;2023-02-20T23:03:57;102005.6;;;13.91;60.35156
59987;BME280;46181;51.498;5.392;2023-02-20T23:08:27;102014.7;;;13.92;60.34082
59987;BME280;46181;51.498;5.392;2023-02-20T23:12:57;102005.5;;;13.91;60.39746
59987;BME280;46181;51.498;5.392;2023-02-20T23:17:27;102013.7;;;13.89;60.5752
59987;BME280;46181;51.498;5.392;2023-02-20T23:21:57;102003.3;;;13.87;60.52734
59987;BME280;46181;51.498;5.392;2023-02-20T23:26:27;102012.2;;;13.86;60.66211